sensor_id;sensor_type;location;lat;lon;timestamp;pressure;altitude;pressure_sealevel;temperature;humidity
59971;BME280;45825;45.434;9.116;2024-01-15T00:00:07;99373.53;;;2.69;100.00
59971;BME280;45825;45.434;9.116;2024-01-15T00:02:33;99362.31;;;2.44;100.00
59971;BME280;45825;45.434;9.116;2024-01-15T00:04:59;99361.63;;;2.63;100.00
59971;BME280;45825;45.434;9.116;2024-01-15T00:07:24;99357.63;;;2.54;100.00
59971;BME280;45825;45.434;9.116;2024-01-15T00:09:49;99360.88;;;2.59;100.00
59971;BME280;45825;45.434;9.116;2024-01-15T00:12:15;99349.75;;;2.32;100.00
59971;BME280;45825;45.434;9.116;2024-01-15T00:14:40;99357.63;;;2.54;100.00
59971;BME280;45825;45.434;9.116;2024-01-15T00:17:05;99354.28;;;2.50;100.00
59971;BME280;45825;45.434;9.116;2024-01-15T00:19:31;99345.22;;;2.39;100.00
59971;BME280;45825;45.434;9.116;2024-01-15T00:21:57;99336.84;;;2.30;100.00
59971;BME280;45825;45.434;9.116;2024-01-15T00:24:22;99342.94;;;2.53;100.00
59971;BME280;45825;45.434;9.116;2024-01-15T00:26:48;99336.06;;;2.28;100.00
59971;BME280;45825;45.434;9.116;2024-01-15T00:29:13;99327.69;;;2.44;100.00
59971;BME280;45825;45.434;9.116;2024-01-15T00:31:38;99334.00;;;2.36;100.00
59971;BME280;45825;45.434;9.116;2024-01-15T00:34:04;99339.00;;;2.43;100.00
59971;BME280;45825;45.434;9.116;2024-01-15T00:36:29;99327.53;;;2.48;100.00
59971;BME280;45825;45.434;9.116;2024-01-15T00:38:54;99322.16;;;2.29;100.00
59971;BME280;45825;45.434;9.116;2024-01-15T00:41:20;99320.72;;;2.20;100.00
59971;BME280;45825;45.434;9.116;2024-01-15T00:43:45;99323.19;;;2.00;100.00
59971;BME280;45825;45.434;9.116;2024-01-15T00:46:11;99312.88;;;1.98;100.00
59971;BME280;45825;45.434;9.116;2024-01-15T00:48:37;99317.13;;;2.25;100.00
59971;BME280;45825;45.434;9.116;2024-01-15T00:51:04;99309.84;;;2.11;100.00
59971;BME280;45825;45.434;9.116;2024-01-15T00:53:29;99309.44;;;2.21;100.00
59971;BME280;45825;45.434;9.116;2024-01-15T00:55:54;99312.16;;;2.18;100.00
59971;BME280;45825;45.434;9.116;2024-01-15T00:58:20;99307.88;;;2.17;100.00
59971;BME280;45825;45.434;9.116;2024-01-15T01:00:45;99313.06;;;2.17;100.00
59971;BME280;45825;45.434;9.116;2024-01-15T01:03:10;99317.47;;;2.15;100.00
59971;BME280;45825;45.434;9.116;2024-01-15T01:05:36;99322.81;;;2.11;100.00
59971;BME280;45825;45.434;9.116;2024-01-15T01:08:01;99322.66;;;2.15;100.00
59971;BME280;45825;45.434;9.116;2024-01-15T01:10:27;99315.16;;;2.07;100.00
59971;BME280;45825;45.434;9.116;2024-01-15T01:12:53;99292.28;;;2.17;100.00
59971;BME280;45825;45.434;9.116;2024-01-15T01:15:18;99302.06;;;2.34;100.00
59971;BME280;45825;45.434;9.116;2024-01-15T01:17:43;99306.69;;;2.26;100.00
59971;BME280;45825;45.434;9.116;2024-01-15T01:20:09;99304.69;;;2.33;100.00
59971;BME280;45825;45.434;9.116;2024-01-15T01:22:35;99308.31;;;2.29;100.00
59971;BME280;45825;45.434;9.116;2024-01-15T01:25:01;99290.44;;;2.21;100.00
59971;BME280;45825;45.434;9.116;2024-01-15T01:27:26;99287.09;;;2.17;100.00
59971;BME280;45825;45.434;9.116;2024-01-15T01:29:52;99279.47;;;2.13;100.00
59971;BME280;45825;45.434;9.116;2024-01-15T01:32:18;99276.09;;;2.11;100.00
59971;BME280;45825;45.434;9.116;2024-01-15T01:34:43;99266.38;;;2.16;100.00
59971;BME280;45825;45.434;9.116;2024-01-15T01:37:12;99262.63;;;2.25;100.00
59971;BME280;45825;45.434;9.116;2024-01-15T01:39:38;99254.03;;;2.22;100.00
59971;BME280;45825;45.434;9.116;2024-01-15T01:42:04;99259.78;;;2.31;100.00
59971;BME280;45825;45.434;9.116;2024-01-15T01:44:29;99256.00;;;2.40;100.00
59971;BME280;45825;45.434;9.116;2024-01-15T01:46:56;99252.34;;;2.45;100.00
59971;BME280;45825;45.434;9.116;2024-01-15T01:49:23;99238.66;;;2.40;100.00
59971;BME280;45825;45.434;9.116;2024-01-15T01:51:49;99241.38;;;2.37;100.00
59971;BME280;45825;45.434;9.116;2024-01-15T01:54:15;99247.56;;;2.79;100.00
59971;BME280;45825;45.434;9.116;2024-01-15T01:56:41;99245.94;;;2.54;100.00
59971;BME280;45825;45.434;9.116;2024-01-15T01:59:07;99248.78;;;2.70;100.00
59971;BME280;45825;45.434;9.116;2024-01-15T02:01:34;99259.75;;;2.55;100.00
59971;BME280;45825;45.434;9.116;2024-01-15T02:04:00;99249.13;;;2.61;100.00
59971;BME280;45825;45.434;9.116;2024-01-15T02:06:25;99247.63;;;2.55;100.00
59971;BME280;45825;45.434;9.116;2024-01-15T02:08:51;99239.88;;;2.31;100.00
59971;BME280;45825;45.434;9.116;2024-01-15T02:11:16;99256.75;;;2.65;100.00
59971;BME280;45825;45.434;9.116;2024-01-15T02:13:42;99243.03;;;2.40;100.00
59971;BME280;45825;45.434;9.116;2024-01-15T02:16:07;99243.41;;;2.29;100.00
59971;BME280;45825;45.434;9.116;2024-01-15T02:18:42;99252.13;;;2.28;100.00
59971;BME280;45825;45.434;9.116;2024-01-15T02:21:09;99244.25;;;2.05;100.00
59971;BME280;45825;45.434;9.116;2024-01-15T02:23:34;99253.81;;;2.05;100.00
59971;BME280;45825;45.434;9.116;2024-01-15T02:25:59;99258.72;;;2.13;100.00
59971;BME280;45825;45.434;9.116;2024-01-15T02:28:25;99248.13;;;2.19;100.00
59971;BME280;45825;45.434;9.116;2024-01-15T02:30:51;99245.63;;;2.16;100.00
59971;BME280;45825;45.434;9.116;2024-01-15T02:33:16;99252.56;;;2.15;100.00
59971;BME280;45825;45.434;9.116;2024-01-15T02:35:42;99241.69;;;2.29;100.00
59971;BME280;45825;45.434;9.116;2024-01-15T02:38:07;99233.78;;;2.08;100.00
59971;BME280;45825;45.434;9.116;2024-01-15T02:40:34;99229.09;;;1.94;100.00
59971;BME280;45825;45.434;9.116;2024-01-15T02:43:00;99232.88;;;1.86;100.00
59971;BME280;45825;45.434;9.116;2024-01-15T02:45:27;99233.09;;;2.03;100.00
59971;BME280;45825;45.434;9.116;2024-01-15T02:47:52;99213.09;;;2.05;100.00
59971;BME280;45825;45.434;9.116;2024-01-15T02:50:18;99216.91;;;1.97;100.00
59971;BME280;45825;45.434;9.116;2024-01-15T02:52:43;99218.84;;;1.91;100.00
59971;BME280;45825;45.434;9.116;2024-01-15T02:55:08;99191.06;;;1.93;100.00
59971;BME280;45825;45.434;9.116;2024-01-15T02:57:34;99206.66;;;1.93;100.00
59971;BME280;45825;45.434;9.116;2024-01-15T02:59:59;99206.41;;;2.00;100.00
59971;BME280;45825;45.434;9.116;2024-01-15T03:02:24;99191.28;;;2.11;100.00
59971;BME280;45825;45.434;9.116;2024-01-15T03:04:50;99183.56;;;2.09;100.00
59971;BME280;45825;45.434;9.116;2024-01-15T03:07:15;99178.66;;;2.02;100.00
59971;BME280;45825;45.434;9.116;2024-01-15T03:09:41;99179.34;;;1.83;100.00
59971;BME280;45825;45.434;9.116;2024-01-15T03:12:07;99172.78;;;1.73;100.00
59971;BME280;45825;45.434;9.116;2024-01-15T03:14:32;99171.31;;;1.65;100.00
59971;BME280;45825;45.434;9.116;2024-01-15T03:16:57;99175.66;;;1.65;100.00
59971;BME280;45825;45.434;9.116;2024-01-15T03:19:23;99177.72;;;1.55;100.00
59971;BME280;45825;45.434;9.116;2024-01-15T03:21:51;99164.22;;;1.47;100.00
59971;BME280;45825;45.434;9.116;2024-01-15T03:24:16;99148.28;;;1.32;100.00
59971;BME280;45825;45.434;9.116;2024-01-15T03:26:42;99150.66;;;1.38;100.00
59971;BME280;45825;45.434;9.116;2024-01-15T03:29:07;99167.78;;;1.43;100.00
59971;BME280;45825;45.434;9.116;2024-01-15T03:31:33;99180.47;;;1.50;100.00
59971;BME280;45825;45.434;9.116;2024-01-15T03:33:58;99170.19;;;1.49;100.00
59971;BME280;45825;45.434;9.116;2024-01-15T03:36:23;99155.91;;;1.61;100.00
59971;BME280;45825;45.434;9.116;2024-01-15T03:38:49;99173.91;;;1.65;100.00
59971;BME280;45825;45.434;9.116;2024-01-15T03:41:14;99155.06;;;1.36;100.00
59971;BME280;45825;45.434;9.116;2024-01-15T03:43:39;99156.47;;;1.45;100.00
59971;BME280;45825;45.434;9.116;2024-01-15T03:46:05;99152.16;;;1.70;100.00
59971;BME280;45825;45.434;9.116;2024-01-15T03:48:30;99163.72;;;1.85;100.00
59971;BME280;45825;45.434;9.116;2024-01-15T03:50:55;99176.59;;;2.10;100.00
59971;BME280;45825;45.434;9.116;2024-01-15T03:53:21;99156.25;;;1.99;100.00
59971;BME280;45825;45.434;9.116;2024-01-15T03:55:46;99153.88;;;1.93;100.00
59971;BME280;45825;45.434;9.116;2024-01-15T03:58:11;99145.59;;;2.07;100.00
59971;BME280;45825;45.434;9.116;2024-01-15T04:00:37;99140.91;;;1.93;100.00
59971;BME280;45825;45.434;9.116;2024-01-15T04:03:02;99132.66;;;1.83;100.00
59971;BME280;45825;45.434;9.116;2024-01-15T04:05:27;99128.41;;;1.80;100.00
59971;BME280;45825;45.434;9.116;2024-01-15T04:07:53;99132.03;;;1.76;100.00
59971;BME280;45825;45.434;9.116;2024-01-15T04:10:18;99126.06;;;1.74;100.00
59971;BME280;45825;45.434;9.116;2024-01-15T04:12:43;99122.47;;;1.77;100.00
59971;BME280;45825;45.434;9.116;2024-01-15T04:15:11;99122.81;;;1.91;100.00
59971;BME280;45825;45.434;9.116;2024-01-15T04:17:37;99112.19;;;1.98;100.00
59971;BME280;45825;45.434;9.116;2024-01-15T04:20:02;99113.53;;;2.08;100.00
59971;BME280;45825;45.434;9.116;2024-01-15T04:22:27;99120.50;;;2.07;100.00
59971;BME280;45825;45.434;9.116;2024-01-15T04:24:53;99120.94;;;1.95;100.00
59971;BME280;45825;45.434;9.116;2024-01-15T04:27:18;99107.97;;;1.95;100.00
59971;BME280;45825;45.434;9.116;2024-01-15T04:29:43;99096.28;;;1.85;100.00
59971;BME280;45825;45.434;9.116;2024-01-15T04:32:09;99105.34;;;1.73;100.00
59971;BME280;45825;45.434;9.116;2024-01-15T04:34:35;99104.75;;;1.66;100.00
59971;BME280;45825;45.434;9.116;2024-01-15T04:37:00;99103.50;;;1.52;100.00
59971;BME280;45825;45.434;9.116;2024-01-15T04:39:25;99102.97;;;1.43;100.00
59971;BME280;45825;45.434;9.116;2024-01-15T04:41:51;99101.28;;;1.42;100.00
59971;BME280;45825;45.434;9.116;2024-01-15T04:44:16;99092.41;;;1.49;100.00
59971;BME280;45825;45.434;9.116;2024-01-15T04:46:41;99091.25;;;1.56;100.00
59971;BME280;45825;45.434;9.116;2024-01-15T04:49:08;99085.44;;;1.49;100.00
59971;BME280;45825;45.434;9.116;2024-01-15T04:51:34;99080.22;;;1.51;100.00
59971;BME280;45825;45.434;9.116;2024-01-15T04:53:59;99074.41;;;1.44;100.00
59971;BME280;45825;45.434;9.116;2024-01-15T04:56:24;99072.66;;;1.45;100.00
59971;BME280;45825;45.434;9.116;2024-01-15T04:58:50;99068.88;;;1.30;100.00
59971;BME280;45825;45.434;9.116;2024-01-15T05:01:16;99074.75;;;1.35;100.00
59971;BME280;45825;45.434;9.116;2024-01-15T05:03:42;99077.38;;;1.33;100.00
59971;BME280;45825;45.434;9.116;2024-01-15T05:06:07;99080.06;;;1.32;100.00
59971;BME280;45825;45.434;9.116;2024-01-15T05:08:32;99080.22;;;1.27;100.00
59971;BME280;45825;45.434;9.116;2024-01-15T05:10:57;99081.00;;;1.29;100.00
59971;BME280;45825;45.434;9.116;2024-01-15T05:13:23;99071.53;;;1.28;100.00
59971;BME280;45825;45.434;9.116;2024-01-15T05:15:48;99076.66;;;1.30;100.00
59971;BME280;45825;45.434;9.116;2024-01-15T05:18:13;99068.66;;;1.36;100.00
59971;BME280;45825;45.434;9.116;2024-01-15T05:20:39;99064.69;;;1.49;100.00
59971;BME280;45825;45.434;9.116;2024-01-15T05:23:04;99071.25;;;1.60;100.00
59971;BME280;45825;45.434;9.116;2024-01-15T05:25:29;99080.38;;;1.70;100.00
59971;BME280;45825;45.434;9.116;2024-01-15T05:27:54;99081.09;;;1.74;100.00
59971;BME280;45825;45.434;9.116;2024-01-15T05:30:20;99080.16;;;1.76;100.00
59971;BME280;45825;45.434;9.116;2024-01-15T05:32:45;99081.72;;;1.80;100.00
59971;BME280;45825;45.434;9.116;2024-01-15T05:35:10;99071.69;;;1.71;100.00
59971;BME280;45825;45.434;9.116;2024-01-15T05:37:36;99068.69;;;1.82;100.00
59971;BME280;45825;45.434;9.116;2024-01-15T05:40:01;99059.75;;;1.89;100.00
59971;BME280;45825;45.434;9.116;2024-01-15T05:42:26;99058.31;;;1.82;100.00
59971;BME280;45825;45.434;9.116;2024-01-15T05:44:52;99046.13;;;1.84;100.00
59971;BME280;45825;45.434;9.116;2024-01-15T05:47:17;99046.25;;;1.81;100.00
59971;BME280;45825;45.434;9.116;2024-01-15T05:49:43;99042.66;;;1.84;100.00
59971;BME280;45825;45.434;9.116;2024-01-15T05:52:08;99047.59;;;1.67;100.00
59971;BME280;45825;45.434;9.116;2024-01-15T05:54:34;99041.53;;;1.69;100.00
59971;BME280;45825;45.434;9.116;2024-01-15T05:56:59;99038.22;;;1.65;100.00
59971;BME280;45825;45.434;9.116;2024-01-15T05:59:24;99026.75;;;1.71;100.00
59971;BME280;45825;45.434;9.116;2024-01-15T06:01:50;99040.50;;;1.73;100.00
59971;BME280;45825;45.434;9.116;2024-01-15T06:04:16;99032.91;;;1.68;100.00
59971;BME280;45825;45.434;9.116;2024-01-15T06:06:41;99032.84;;;1.70;100.00
59971;BME280;45825;45.434;9.116;2024-01-15T06:09:06;99027.66;;;1.70;100.00
59971;BME280;45825;45.434;9.116;2024-01-15T06:11:32;99029.66;;;1.85;100.00
59971;BME280;45825;45.434;9.116;2024-01-15T06:13:57;99032.00;;;1.69;100.00
59971;BME280;45825;45.434;9.116;2024-01-15T06:16:23;99043.22;;;1.92;100.00
59971;BME280;45825;45.434;9.116;2024-01-15T06:18:49;99034.78;;;1.87;100.00
59971;BME280;45825;45.434;9.116;2024-01-15T06:21:15;99034.34;;;1.98;100.00
59971;BME280;45825;45.434;9.116;2024-01-15T06:23:41;99036.78;;;1.80;100.00
59971;BME280;45825;45.434;9.116;2024-01-15T06:26:06;99032.91;;;1.68;100.00
59971;BME280;45825;45.434;9.116;2024-01-15T06:28:32;99013.84;;;1.69;100.00
59971;BME280;45825;45.434;9.116;2024-01-15T06:30:57;99014.63;;;1.71;100.00
59971;BME280;45825;45.434;9.116;2024-01-15T06:33:23;99022.97;;;2.02;100.00
59971;BME280;45825;45.434;9.116;2024-01-15T06:35:48;99038.56;;;1.78;100.00
59971;BME280;45825;45.434;9.116;2024-01-15T06:38:14;99023.91;;;1.77;100.00
59971;BME280;45825;45.434;9.116;2024-01-15T06:40:40;99039.22;;;1.61;100.00
59971;BME280;45825;45.434;9.116;2024-01-15T06:43:10;99037.03;;;1.50;100.00
59971;BME280;45825;45.434;9.116;2024-01-15T06:45:35;99050.19;;;1.45;100.00
59971;BME280;45825;45.434;9.116;2024-01-15T06:48:01;99035.69;;;1.39;100.00
59971;BME280;45825;45.434;9.116;2024-01-15T06:50:26;99034.34;;;1.29;100.00
59971;BME280;45825;45.434;9.116;2024-01-15T06:52:51;99035.69;;;1.16;100.00
59971;BME280;45825;45.434;9.116;2024-01-15T06:55:17;99038.66;;;1.05;100.00
59971;BME280;45825;45.434;9.116;2024-01-15T06:57:42;99031.94;;;0.99;100.00
59971;BME280;45825;45.434;9.116;2024-01-15T07:00:08;99036.31;;;0.99;100.00
59971;BME280;45825;45.434;9.116;2024-01-15T07:02:34;99035.09;;;0.83;100.00
59971;BME280;45825;45.434;9.116;2024-01-15T07:04:59;99037.41;;;0.91;100.00
59971;BME280;45825;45.434;9.116;2024-01-15T07:07:25;99037.38;;;0.93;100.00
59971;BME280;45825;45.434;9.116;2024-01-15T07:09:54;99043.69;;;0.84;100.00
59971;BME280;45825;45.434;9.116;2024-01-15T07:12:19;99030.06;;;0.79;100.00
59971;BME280;45825;45.434;9.116;2024-01-15T07:14:44;99039.25;;;0.88;100.00
59971;BME280;45825;45.434;9.116;2024-01-15T07:17:10;99043.59;;;0.87;100.00
59971;BME280;45825;45.434;9.116;2024-01-15T07:19:35;99031.66;;;1.07;100.00
59971;BME280;45825;45.434;9.116;2024-01-15T07:22:00;99041.97;;;0.85;100.00
59971;BME280;45825;45.434;9.116;2024-01-15T07:24:26;99044.66;;;0.81;100.00
59971;BME280;45825;45.434;9.116;2024-01-15T07:26:51;99042.25;;;0.77;100.00
59971;BME280;45825;45.434;9.116;2024-01-15T07:29:16;99056.56;;;0.87;100.00
59971;BME280;45825;45.434;9.116;2024-01-15T07:31:48;99048.03;;;1.09;100.00
59971;BME280;45825;45.434;9.116;2024-01-15T07:34:13;99054.91;;;1.10;100.00
59971;BME280;45825;45.434;9.116;2024-01-15T07:36:38;99052.41;;;1.07;100.00
59971;BME280;45825;45.434;9.116;2024-01-15T07:39:04;99061.97;;;1.05;100.00
59971;BME280;45825;45.434;9.116;2024-01-15T07:41:29;99054.47;;;0.97;100.00
59971;BME280;45825;45.434;9.116;2024-01-15T07:43:54;99050.47;;;0.88;100.00
59971;BME280;45825;45.434;9.116;2024-01-15T07:46:20;99052.31;;;0.59;100.00
59971;BME280;45825;45.434;9.116;2024-01-15T07:48:45;99053.38;;;0.79;100.00
59971;BME280;45825;45.434;9.116;2024-01-15T07:51:10;99046.66;;;0.99;100.00
59971;BME280;45825;45.434;9.116;2024-01-15T07:53:36;99046.06;;;1.16;100.00
59971;BME280;45825;45.434;9.116;2024-01-15T07:56:01;99046.06;;;1.16;100.00
59971;BME280;45825;45.434;9.116;2024-01-15T07:58:26;99043.00;;;1.04;100.00
59971;BME280;45825;45.434;9.116;2024-01-15T08:00:51;99035.75;;;1.14;100.00
59971;BME280;45825;45.434;9.116;2024-01-15T08:03:17;99034.50;;;1.24;100.00
59971;BME280;45825;45.434;9.116;2024-01-15T08:05:43;99036.69;;;1.11;100.00
59971;BME280;45825;45.434;9.116;2024-01-15T08:08:08;99027.50;;;1.03;100.00
59971;BME280;45825;45.434;9.116;2024-01-15T08:10:33;99036.78;;;0.85;100.00
59971;BME280;45825;45.434;9.116;2024-01-15T08:12:58;99044.00;;;1.00;100.00
59971;BME280;45825;45.434;9.116;2024-01-15T08:15:24;99037.75;;;1.06;100.00
59971;BME280;45825;45.434;9.116;2024-01-15T08:17:49;99035.00;;;1.10;100.00
59971;BME280;45825;45.434;9.116;2024-01-15T08:20:15;99042.28;;;1.01;100.00
59971;BME280;45825;45.434;9.116;2024-01-15T08:22:41;99035.75;;;0.89;100.00
59971;BME280;45825;45.434;9.116;2024-01-15T08:25:06;99027.84;;;0.93;100.00
59971;BME280;45825;45.434;9.116;2024-01-15T08:27:32;99037.88;;;1.03;100.00
59971;BME280;45825;45.434;9.116;2024-01-15T08:29:57;99042.31;;;1.23;100.00
59971;BME280;45825;45.434;9.116;2024-01-15T08:32:22;99043.19;;;1.23;100.00
59971;BME280;45825;45.434;9.116;2024-01-15T08:34:48;99046.41;;;1.30;100.00
59971;BME280;45825;45.434;9.116;2024-01-15T08:37:17;99035.78;;;1.13;100.00
59971;BME280;45825;45.434;9.116;2024-01-15T08:39:44;99027.06;;;1.15;100.00
59971;BME280;45825;45.434;9.116;2024-01-15T08:42:09;99028.66;;;1.43;100.00
59971;BME280;45825;45.434;9.116;2024-01-15T08:44:36;99032.81;;;1.23;100.00
59971;BME280;45825;45.434;9.116;2024-01-15T08:47:01;99023.13;;;1.29;100.00
59971;BME280;45825;45.434;9.116;2024-01-15T08:49:28;99026.94;;;1.18;100.00
59971;BME280;45825;45.434;9.116;2024-01-15T08:51:53;99028.47;;;1.24;100.00
59971;BME280;45825;45.434;9.116;2024-01-15T08:54:18;99023.50;;;1.42;100.00
59971;BME280;45825;45.434;9.116;2024-01-15T08:56:43;99024.25;;;1.67;100.00
59971;BME280;45825;45.434;9.116;2024-01-15T08:59:09;99016.31;;;1.72;100.00
59971;BME280;45825;45.434;9.116;2024-01-15T09:01:38;99014.53;;;1.74;100.00
59971;BME280;45825;45.434;9.116;2024-01-15T09:04:03;99022.78;;;1.84;100.00
59971;BME280;45825;45.434;9.116;2024-01-15T09:06:28;99020.59;;;1.73;100.00
59971;BME280;45825;45.434;9.116;2024-01-15T09:08:54;99018.19;;;1.91;100.00
59971;BME280;45825;45.434;9.116;2024-01-15T09:11:19;99025.19;;;1.89;100.00
59971;BME280;45825;45.434;9.116;2024-01-15T09:13:44;99034.16;;;2.02;100.00
59971;BME280;45825;45.434;9.116;2024-01-15T09:16:10;99028.66;;;2.10;100.00
59971;BME280;45825;45.434;9.116;2024-01-15T09:18:35;99044.66;;;2.21;100.00
59971;BME280;45825;45.434;9.116;2024-01-15T09:21:02;99042.78;;;2.25;100.00
59971;BME280;45825;45.434;9.116;2024-01-15T09:23:28;99051.25;;;2.08;100.00
59971;BME280;45825;45.434;9.116;2024-01-15T09:25:53;99053.91;;;2.06;100.00
59971;BME280;45825;45.434;9.116;2024-01-15T09:28:19;99045.69;;;2.17;100.00
59971;BME280;45825;45.434;9.116;2024-01-15T09:30:44;99040.56;;;2.16;100.00
59971;BME280;45825;45.434;9.116;2024-01-15T09:33:10;99041.09;;;2.24;100.00
59971;BME280;45825;45.434;9.116;2024-01-15T09:35:35;99041.50;;;2.35;100.00
59971;BME280;45825;45.434;9.116;2024-01-15T09:38:02;99047.28;;;2.42;100.00
59971;BME280;45825;45.434;9.116;2024-01-15T09:40:31;99042.22;;;2.39;100.00
59971;BME280;45825;45.434;9.116;2024-01-15T09:42:57;99033.88;;;2.53;100.00
59971;BME280;45825;45.434;9.116;2024-01-15T09:45:23;99036.13;;;2.61;100.00
59971;BME280;45825;45.434;9.116;2024-01-15T09:47:48;99041.00;;;2.48;100.00
59971;BME280;45825;45.434;9.116;2024-01-15T09:50:13;99037.31;;;2.11;100.00
59971;BME280;45825;45.434;9.116;2024-01-15T09:52:40;99030.94;;;1.97;100.00
59971;BME280;45825;45.434;9.116;2024-01-15T09:55:08;99029.53;;;2.11;100.00
59971;BME280;45825;45.434;9.116;2024-01-15T09:57:34;99016.94;;;2.22;100.00
59971;BME280;45825;45.434;9.116;2024-01-15T10:00:02;99011.94;;;2.17;100.00
59971;BME280;45825;45.434;9.116;2024-01-15T10:02:31;99007.94;;;2.31;100.00
59971;BME280;45825;45.434;9.116;2024-01-15T10:04:56;99021.31;;;2.42;100.00
59971;BME280;45825;45.434;9.116;2024-01-15T10:07:23;99010.94;;;2.63;100.00
59971;BME280;45825;45.434;9.116;2024-01-15T10:09:49;99008.53;;;2.79;100.00
59971;BME280;45825;45.434;9.116;2024-01-15T10:12:14;99010.88;;;2.85;100.00
59971;BME280;45825;45.434;9.116;2024-01-15T10:14:40;99008.09;;;3.09;100.00
59971;BME280;45825;45.434;9.116;2024-01-15T10:17:12;98993.97;;;3.34;100.00
59971;BME280;45825;45.434;9.116;2024-01-15T10:19:39;98993.91;;;3.35;100.00
59971;BME280;45825;45.434;9.116;2024-01-15T10:22:07;98993.25;;;3.30;100.00
59971;BME280;45825;45.434;9.116;2024-01-15T10:24:35;99003.47;;;3.35;100.00
59971;BME280;45825;45.434;9.116;2024-01-15T10:27:08;98997.63;;;3.30;100.00
59971;BME280;45825;45.434;9.116;2024-01-15T10:29:34;98998.59;;;3.46;100.00
59971;BME280;45825;45.434;9.116;2024-01-15T10:31:59;98989.41;;;3.39;100.00
59971;BME280;45825;45.434;9.116;2024-01-15T10:34:26;98979.72;;;3.24;100.00
59971;BME280;45825;45.434;9.116;2024-01-15T10:36:51;98968.47;;;3.42;100.00
59971;BME280;45825;45.434;9.116;2024-01-15T10:39:21;98958.56;;;3.68;100.00
59971;BME280;45825;45.434;9.116;2024-01-15T10:41:47;98953.88;;;3.94;100.00
59971;BME280;45825;45.434;9.116;2024-01-15T10:44:12;98962.56;;;4.12;100.00
59971;BME280;45825;45.434;9.116;2024-01-15T10:46:37;98961.63;;;4.31;100.00
59971;BME280;45825;45.434;9.116;2024-01-15T10:49:04;98957.03;;;4.36;100.00
59971;BME280;45825;45.434;9.116;2024-01-15T10:51:29;98954.72;;;4.65;100.00
59971;BME280;45825;45.434;9.116;2024-01-15T10:53:56;98935.56;;;4.82;100.00
59971;BME280;45825;45.434;9.116;2024-01-15T10:56:22;98924.31;;;4.98;100.00
59971;BME280;45825;45.434;9.116;2024-01-15T10:58:52;98910.28;;;5.00;100.00
59971;BME280;45825;45.434;9.116;2024-01-15T11:01:17;98910.09;;;4.87;100.00
59971;BME280;45825;45.434;9.116;2024-01-15T11:03:44;98899.16;;;5.45;100.00
59971;BME280;45825;45.434;9.116;2024-01-15T11:06:17;98899.78;;;6.42;100.00
59971;BME280;45825;45.434;9.116;2024-01-15T11:08:48;98890.06;;;6.73;100.00
59971;BME280;45825;45.434;9.116;2024-01-15T11:11:16;98891.28;;;7.38;100.00
59971;BME280;45825;45.434;9.116;2024-01-15T11:13:41;98887.50;;;8.49;100.00
59971;BME280;45825;45.434;9.116;2024-01-15T11:16:11;98882.09;;;9.40;100.00
59971;BME280;45825;45.434;9.116;2024-01-15T11:18:42;98878.41;;;10.14;100.00
59971;BME280;45825;45.434;9.116;2024-01-15T11:21:19;98858.00;;;10.29;100.00
59971;BME280;45825;45.434;9.116;2024-01-15T11:23:46;98844.03;;;10.97;100.00
59971;BME280;45825;45.434;9.116;2024-01-15T11:26:38;98850.41;;;10.72;100.00
59971;BME280;45825;45.434;9.116;2024-01-15T11:29:29;98844.63;;;11.01;100.00
59971;BME280;45825;45.434;9.116;2024-01-15T11:34:20;98818.16;;;13.43;100.00
59971;BME280;45825;45.434;9.116;2024-01-15T11:41:52;98791.63;;;13.45;100.00
59971;BME280;45825;45.434;9.116;2024-01-15T11:44:17;98774.59;;;14.90;85.45
59971;BME280;45825;45.434;9.116;2024-01-15T11:46:57;98784.06;;;14.75;80.60
59971;BME280;45825;45.434;9.116;2024-01-15T11:52:02;98781.97;;;15.51;56.59
59971;BME280;45825;45.434;9.116;2024-01-15T11:54:33;98778.41;;;15.60;54.49
59971;BME280;45825;45.434;9.116;2024-01-15T11:57:04;98781.22;;;15.22;55.81
59971;BME280;45825;45.434;9.116;2024-01-15T11:59:34;98766.47;;;15.64;55.58
59971;BME280;45825;45.434;9.116;2024-01-15T12:02:00;98759.06;;;14.77;56.19
59971;BME280;45825;45.434;9.116;2024-01-15T12:04:26;98744.72;;;16.40;51.97
59971;BME280;45825;45.434;9.116;2024-01-15T12:06:52;98734.16;;;17.50;50.05
59971;BME280;45825;45.434;9.116;2024-01-15T12:09:19;98731.16;;;17.03;45.11
59971;BME280;45825;45.434;9.116;2024-01-15T12:11:51;98739.75;;;16.97;45.97
59971;BME280;45825;45.434;9.116;2024-01-15T12:14:21;98728.47;;;17.78;45.67
59971;BME280;45825;45.434;9.116;2024-01-15T12:16:46;98716.88;;;18.27;43.42
59971;BME280;45825;45.434;9.116;2024-01-15T12:19:14;98714.78;;;18.06;43.00
59971;BME280;45825;45.434;9.116;2024-01-15T12:21:39;98711.31;;;17.88;43.69
59971;BME280;45825;45.434;9.116;2024-01-15T12:24:07;98711.00;;;16.84;44.89
59971;BME280;45825;45.434;9.116;2024-01-15T12:26:33;98702.22;;;16.24;46.51
59971;BME280;45825;45.434;9.116;2024-01-15T12:29:01;98688.09;;;17.49;43.35
59971;BME280;45825;45.434;9.116;2024-01-15T12:31:29;98671.00;;;18.17;42.44
59971;BME280;45825;45.434;9.116;2024-01-15T12:33:56;98668.19;;;18.96;40.71
59971;BME280;45825;45.434;9.116;2024-01-15T12:36:21;98659.31;;;18.57;40.98
59971;BME280;45825;45.434;9.116;2024-01-15T12:38:46;98652.38;;;18.48;41.91
59971;BME280;45825;45.434;9.116;2024-01-15T12:41:11;98657.59;;;18.65;41.27
59971;BME280;45825;45.434;9.116;2024-01-15T12:43:37;98642.91;;;19.16;39.47
59971;BME280;45825;45.434;9.116;2024-01-15T12:46:02;98632.97;;;19.09;40.49
59971;BME280;45825;45.434;9.116;2024-01-15T12:48:28;98623.72;;;18.50;41.50
59971;BME280;45825;45.434;9.116;2024-01-15T12:50:53;98632.72;;;18.96;40.57
59971;BME280;45825;45.434;9.116;2024-01-15T12:53:20;98634.22;;;18.52;41.33
59971;BME280;45825;45.434;9.116;2024-01-15T12:55:45;98642.19;;;19.22;40.00
59971;BME280;45825;45.434;9.116;2024-01-15T12:58:11;98640.00;;;19.25;40.00
59971;BME280;45825;45.434;9.116;2024-01-15T13:00:36;98638.63;;;20.78;36.39
59971;BME280;45825;45.434;9.116;2024-01-15T13:03:02;98637.59;;;18.69;39.99